Jesup, IA (50648)

5:47 PM CST on November 22, 2014 (GMT -0600)
Northridge Addition | Change Station
CLOSE
Current Station
Personal Weather Station
Location: Independence, IA
Elevation: 929 ft
Nearby Weather Stations

Elev 929 ft 42.48 °N, 91.89 °W | Updated 2 seconds ago

Partly Cloudy
Partly Cloudy
48.5 °F
Feels Like 48 °F
N
1.6
Wind Variable Wind from SE
Gusts 3.1 mph

Today
High -- | Low -- °F
--% Chance of Precip.
Yesterday
High -- | Low -- °F
Precip. -- in
7:07 AM 4:40 PM
New Moon, 0% visible
Pressure 29.73 in
Visibility 6.0 miles
Clouds Scattered Clouds 1300 ft
Windchill 48 °F
Dew Point 45 °F
Humidity 88%
Rainfall 0.00 in
Snow Depth Not available.
UV 0 out of 12
Pollen .10 out of 12
Air Quality Not available.
Flu Activity Not available.
METAR KOLZ 222335Z AUTO 19012G18KT 6SM BR SCT013 06/06 A2973 RMK AO2

More Conditions Fewer Conditions

Pressure 29.73 in
Visibility 6.0 miles
Clouds Scattered Clouds 1300 ft
Windchill 48 °F
Dew Point 45 °F
Humidity 88%
Rainfall 0.00 in
Snow Depth Not available.
UV 0 out of 12
Pollen .10 out of 12
Air Quality Not available.
Flu Activity Not available.
METAR KOLZ 222335Z AUTO 19012G18KT 6SM BR SCT013 06/06 A2973 RMK AO2

More Conditions Fewer Conditions

10-Day Weather Forecast

Almanac

Astronomy

Nov. 22, 2014 Rise Set
Actual Time
Civil Twilight
Nautical Twilight
Astronomical Twilight
Moon
Length of Visible Light
Length of Day
Tomorrow will be .
, % of the Moon is Illuminated

Today's Extremes

State Highs State Lows

Community

WunderPhotos

Upload Photos

1,772,928 photos uploaded!

WunderBlogs® & News

Nearby

Air Quality

  Air Quality AQ Index Pollutant
Not available.

Snow Depth

Station Depth Elevation

Earthquake Activity

City Distance Mag. Time & Date
Minimum magnitude displayed is 2.5.

Coastal Water Temperatures

Place Temperature

Nearby Weather Stations